Golden Meadow, LA (70357)

12:12 AM CDT on August 30, 2014 (GMT -0500)
Port Fourchon Terminal | Change Station
CLOSE
Current Station
Airport
Location: Port Fourchon Terminal,
Elevation: 7 ft
Nearby Weather Stations

Elev 7 ft 29.12 °N, 90.20 °W | Updated 17 minutes ago

Clear
Clear
82 °F
Feels Like 88 °F
N
10
Wind Variable Wind from SE

Today
High -- | Low -- °F
--% Chance of Precip.
Yesterday
High -- | Low -- °F
Precip. -- in
6:37 AM 7:25 PM
Waxing Crescent, 19% visible
Pressure 30.03 in
Visibility 10.0 miles
Clouds Clear
Heat Index 88 °F
Dew Point 73 °F
Humidity 74%
Rainfall 0.00 in
Snow Depth Not available.
UV 0 out of 12
Pollen 6.20 out of 12
Air Quality Not available.
Flu Activity Not available.
METAR KXPY 300455Z AUTO 13009KT 10SM CLR 28/23 A3003 RMK A01

More Conditions Fewer Conditions

Pressure 30.03 in
Visibility 10.0 miles
Clouds Clear
Heat Index 88 °F
Dew Point 73 °F
Humidity 74%
Rainfall 0.00 in
Snow Depth Not available.
UV 0 out of 12
Pollen 6.20 out of 12
Air Quality Not available.
Flu Activity Not available.
METAR KXPY 300455Z AUTO 13009KT 10SM CLR 28/23 A3003 RMK A01

More Conditions Fewer Conditions

10-Day Weather Forecast

Almanac

Astronomy

Aug. 30, 2014 Rise Set
Actual Time 6:37 AM CDT 7:25 PM CDT
Civil Twilight 6:13 AM CDT 7:49 PM CDT
Nautical Twilight 5:44 AM CDT 8:18 PM CDT
Astronomical Twilight 5:15 AM CDT 8:47 PM CDT
Moon 11:00 AM CDT 10:25 PM CDT
Length of Visible Light 13h 36m
Length of Day
12h 47m
Tomorrow will be 1m 41s shorter.
Waxing Crescent, 19% of the Moon is Illuminated
Today
Waxing Crescent
Sep 2
First Quarter
Sep 8
Full
Sep 15
Last Quarter
Sep 24
New

Today's Extremes

State Highs State Lows

Community

WunderPhotos

Upload Photos

1,748,463 photos uploaded!

Nearby

Snow Depth

Station Depth Elevation
No new snow has been reported.

Earthquake Activity

City Distance Mag. Time & Date
No recent earthquake activity has been reported nearby.
Minimum magnitude displayed is 2.5.

Coastal Water Temperatures

Place Temperature
Amerada Pass, LA 84.0 °F

Nearby Weather Stations